Accord, Massachusetts
Current Conditions -  °F | °C
As of 6:15 AM on Monday 22 Dec 2014 (Local Time) from KGHG Reporting Station
Overcast Overcast  
Wind Chill:   Ceiling: 1600
Heat Index:   Visibility: 10mi
Dew Point:   Wind: 5mph
Humidity: 100%   Direction: 340°NNW
Pressure: 30.37"   Gusts: NA
Location:  42.17°N, 70.88°W
Report Text: KGHG 221115Z AUTO 34004KT 10SM FEW011 BKN016 OVC025 04/04 A3037 RMK AO2
Loading
Personal Weather Stations






























Interactive Weather Map New forecast layout! Learn more

10-Day Weather Forecast

Advertisements
Track Severe Weather on mobile